createdAt,value
2019-03-26T00:02:06.244Z,99016.58
2019-03-26T00:04:39.031Z,99010.51
2019-03-26T00:07:10.244Z,99014.01
2019-03-26T00:09:41.383Z,99024.23
2019-03-26T00:12:12.594Z,99016.44
2019-03-26T00:14:46.731Z,99021.75
2019-03-26T00:17:17.983Z,99019.83
2019-03-26T00:19:49.288Z,99025.70
2019-03-26T00:22:22.180Z,99026.58
2019-03-26T00:24:52.963Z,99031.70
2019-03-26T00:27:24.126Z,99036.20
2019-03-26T00:29:57.199Z,99032.70
2019-03-26T00:32:28.270Z,99034.05
2019-03-26T00:34:59.280Z,99033.94
2019-03-26T00:37:32.212Z,99037.19
2019-03-26T00:40:05.936Z,99043.37
2019-03-26T00:42:37.837Z,99044.45
2019-03-26T00:45:09.076Z,99040.23
2019-03-26T00:47:43.802Z,99045.53
2019-03-26T00:50:35.547Z,99050.88
2019-03-26T00:53:06.603Z,99051.45
2019-03-26T00:55:38.169Z,99053.31
2019-03-26T00:58:09.143Z,99056.52
2019-03-26T01:00:46.017Z,99059.56
2019-03-26T01:03:20.107Z,99061.88
2019-03-26T01:05:52.565Z,99067.23
2019-03-26T01:08:23.832Z,99065.86
2019-03-26T01:10:54.715Z,99060.50
2019-03-26T01:13:25.782Z,99062.82
2019-03-26T01:15:57.044Z,99069.52
2019-03-26T01:18:28.085Z,99075.88
2019-03-26T01:20:59.209Z,99071.10
2019-03-26T01:23:30.018Z,99074.11
2019-03-26T01:26:01.591Z,99084.06
2019-03-26T01:28:32.651Z,99077.18
2019-03-26T01:31:04.878Z,99084.52
2019-03-26T01:33:36.996Z,99085.22
2019-03-26T01:36:07.675Z,99086.55
2019-03-26T01:38:39.100Z,99083.30
2019-03-26T01:41:10.209Z,99085.22
2019-03-26T01:43:41.267Z,99083.88
2019-03-26T01:46:12.215Z,99076.58
2019-03-26T01:48:43.279Z,99075.51
2019-03-26T01:51:14.399Z,99074.69
2019-03-26T01:53:45.555Z,99076.22
2019-03-26T01:56:18.601Z,99089.48
2019-03-26T01:58:52.048Z,99083.48
2019-03-26T02:01:24.351Z,99078.77
2019-03-26T02:03:55.284Z,99084.25
2019-03-26T02:06:26.227Z,99088.45
2019-03-26T02:08:57.196Z,99088.00
2019-03-26T02:11:28.503Z,99082.64
2019-03-26T02:14:00.046Z,99084.73
2019-03-26T02:16:34.624Z,99086.72
2019-03-26T02:19:05.839Z,99085.50
2019-03-26T02:21:37.011Z,99087.48
2019-03-26T02:24:08.420Z,99085.16
2019-03-26T02:26:44.486Z,99084.40
2019-03-26T02:29:15.539Z,99085.33
2019-03-26T02:31:46.590Z,99085.96
2019-03-26T02:34:17.849Z,99087.72
2019-03-26T02:36:48.942Z,99078.22
2019-03-26T02:39:20.130Z,99086.59
2019-03-26T02:41:51.351Z,99082.45
2019-03-26T02:44:22.595Z,99089.90
2019-03-26T02:46:56.606Z,99094.73
2019-03-26T02:49:27.905Z,99091.51
2019-03-26T02:52:00.939Z,99100.36
2019-03-26T02:54:32.061Z,99105.12
2019-03-26T02:57:03.159Z,99105.81
2019-03-26T02:59:40.240Z,99114.94
2019-03-26T03:02:11.463Z,99121.00
2019-03-26T03:04:42.699Z,99122.99
2019-03-26T03:07:15.828Z,99125.16
2019-03-26T03:09:46.917Z,99140.11
2019-03-26T03:12:18.074Z,99142.61
2019-03-26T03:14:49.198Z,99144.81
2019-03-26T03:17:20.328Z,99147.55
2019-03-26T03:19:51.722Z,99144.88
2019-03-26T03:22:23.851Z,99147.73
2019-03-26T03:24:55.165Z,99144.23
2019-03-26T03:27:26.295Z,99140.90
2019-03-26T03:29:57.501Z,99141.07
2019-03-26T03:32:28.504Z,99148.75
2019-03-26T03:34:59.561Z,99154.03
2019-03-26T03:37:30.906Z,99159.41
2019-03-26T03:40:03.122Z,99164.68
2019-03-26T03:42:36.182Z,99165.16
2019-03-26T03:45:10.287Z,99170.70
2019-03-26T03:47:43.733Z,99180.38
2019-03-26T03:50:14.945Z,99178.87
2019-03-26T03:52:46.150Z,99169.95
2019-03-26T03:55:17.216Z,99175.69
2019-03-26T03:57:52.802Z,99172.42
2019-03-26T04:00:41.767Z,99179.91
2019-03-26T04:03:15.660Z,99180.52
2019-03-26T04:05:46.839Z,99187.72
2019-03-26T04:08:18.039Z,99190.91
2019-03-26T04:10:49.213Z,99192.17
2019-03-26T04:13:20.601Z,99196.52
2019-03-26T04:15:53.802Z,99192.27
2019-03-26T04:18:24.989Z,99194.35
2019-03-26T04:20:56.265Z,99200.76
2019-03-26T04:23:28.771Z,99201.19
2019-03-26T04:25:59.643Z,99194.03
2019-03-26T04:28:30.854Z,99203.98
2019-03-26T04:31:01.786Z,99208.65
2019-03-26T04:33:34.086Z,99203.02
2019-03-26T04:36:05.340Z,99203.25
2019-03-26T04:38:36.539Z,99201.17
2019-03-26T04:41:07.993Z,99207.03
2019-03-26T04:43:39.698Z,99217.49
2019-03-26T04:46:11.112Z,99226.63
2019-03-26T04:48:42.022Z,99225.36
2019-03-26T04:51:13.025Z,99225.36
2019-03-26T04:53:46.116Z,99225.73
2019-03-26T04:56:18.997Z,99221.48
2019-03-26T04:58:50.134Z,99221.84
2019-03-26T05:01:21.819Z,99226.44
2019-03-26T05:03:52.998Z,99226.75
2019-03-26T05:06:37.212Z,99224.89
2019-03-26T05:08:57.166Z,99231.66
2019-03-26T05:11:30.055Z,99236.77
2019-03-26T05:14:01.325Z,99232.77
2019-03-26T05:16:34.046Z,99240.79
2019-03-26T05:19:05.466Z,99236.77
2019-03-26T05:21:36.750Z,99238.39
2019-03-26T05:24:09.682Z,99243.73
2019-03-26T05:26:41.173Z,99242.40
2019-03-26T05:29:14.205Z,99242.12
2019-03-26T05:31:46.800Z,99249.71
2019-03-26T05:34:17.719Z,99256.40
2019-03-26T05:36:51.440Z,99257.84
2019-03-26T05:39:21.939Z,99250.13
2019-03-26T05:41:54.399Z,99252.80
2019-03-26T05:44:25.938Z,99256.00
2019-03-26T05:46:57.255Z,99255.77
2019-03-26T05:49:31.574Z,99262.52
2019-03-26T05:52:02.639Z,99275.53
2019-03-26T05:54:35.709Z,99282.08
2019-03-26T05:57:08.630Z,99281.94
2019-03-26T05:59:39.815Z,99279.14
2019-03-26T06:02:15.166Z,99280.69
2019-03-26T06:04:44.294Z,99281.20
2019-03-26T06:07:17.254Z,99285.01
2019-03-26T06:09:48.306Z,99287.95
2019-03-26T06:12:19.556Z,99285.47
2019-03-26T06:14:50.815Z,99286.61
2019-03-26T06:17:22.278Z,99283.30
2019-03-26T06:19:55.251Z,99282.23
2019-03-26T06:22:28.359Z,99289.09
2019-03-26T06:25:01.412Z,99289.58
2019-03-26T06:27:32.726Z,99290.77
2019-03-26T06:30:03.884Z,99288.95
2019-03-26T06:32:36.219Z,99286.85
2019-03-26T06:35:08.155Z,99287.61
2019-03-26T06:37:41.147Z,99289.26
2019-03-26T06:40:13.361Z,99291.00
2019-03-26T06:42:44.484Z,99292.23
2019-03-26T06:45:16.013Z,99294.80
2019-03-26T06:47:47.053Z,99295.33
2019-03-26T06:50:19.792Z,99302.56
2019-03-26T06:52:54.311Z,99295.50
2019-03-26T06:55:27.288Z,99305.58
2019-03-26T06:58:00.225Z,99307.13
2019-03-26T07:00:32.413Z,99307.77
2019-03-26T07:03:04.765Z,99315.36
2019-03-26T07:05:37.876Z,99318.16
2019-03-26T07:08:10.807Z,99323.41
2019-03-26T07:10:42.058Z,99320.72
2019-03-26T07:13:13.322Z,99329.69
2019-03-26T07:15:44.672Z,99326.03
2019-03-26T07:18:15.931Z,99331.52
2019-03-26T07:20:48.189Z,99336.91
2019-03-26T07:23:21.023Z,99332.03
2019-03-26T07:25:52.516Z,99330.95
2019-03-26T07:28:24.488Z,99330.58
2019-03-26T07:30:55.476Z,99341.75
2019-03-26T07:33:27.912Z,99347.13
2019-03-26T07:35:59.041Z,99345.14
2019-03-26T07:38:30.152Z,99347.25
2019-03-26T07:41:01.274Z,99338.13
2019-03-26T07:43:33.659Z,99349.72
2019-03-26T07:46:04.794Z,99343.95
2019-03-26T07:48:35.885Z,99349.02
2019-03-26T07:51:06.937Z,99353.50
2019-03-26T07:53:39.243Z,99353.70
2019-03-26T07:56:12.028Z,99352.67
2019-03-26T07:58:47.076Z,99352.41
2019-03-26T08:01:18.242Z,99363.05
2019-03-26T08:03:51.170Z,99361.21
2019-03-26T08:06:22.481Z,99361.33
2019-03-26T08:08:54.027Z,99355.13
2019-03-26T08:11:25.183Z,99364.64
2019-03-26T08:13:56.321Z,99362.55
2019-03-26T08:16:27.946Z,99368.66
2019-03-26T08:18:59.474Z,99364.72
2019-03-26T08:21:32.480Z,99366.75
2019-03-26T08:24:03.773Z,99358.06
2019-03-26T08:26:35.119Z,99363.73
2019-03-26T08:29:06.328Z,99370.07
2019-03-26T08:31:38.504Z,99373.84
2019-03-26T08:34:09.615Z,99369.94
2019-03-26T08:36:41.708Z,99364.72
2019-03-26T08:39:13.042Z,99370.39
2019-03-26T08:41:44.271Z,99375.30
2019-03-26T08:44:15.403Z,99380.62
2019-03-26T08:46:47.096Z,99372.70
2019-03-26T08:49:18.530Z,99372.61
2019-03-26T08:51:49.755Z,99369.46
2019-03-26T08:54:20.873Z,99370.79
2019-03-26T08:56:52.293Z,99369.45
2019-03-26T08:59:24.006Z,99373.86
2019-03-26T09:01:55.189Z,99377.47
2019-03-26T09:04:28.190Z,99380.31
2019-03-26T09:06:59.444Z,99378.88
2019-03-26T09:09:32.153Z,99376.69
2019-03-26T09:12:03.756Z,99376.61
2019-03-26T09:14:35.071Z,99383.87
2019-03-26T09:17:10.881Z,99386.95
2019-03-26T09:19:42.167Z,99385.78
2019-03-26T09:22:15.144Z,99401.78
2019-03-26T09:24:46.445Z,99394.95
2019-03-26T09:27:17.763Z,99394.99
2019-03-26T09:29:49.833Z,99399.39
2019-03-26T09:32:21.272Z,99400.88
2019-03-26T09:34:52.563Z,99399.00
2019-03-26T09:37:23.630Z,99398.80
2019-03-26T09:39:55.339Z,99403.41
2019-03-26T09:42:26.706Z,99404.45
2019-03-26T09:44:58.666Z,99408.91
2019-03-26T09:47:29.965Z,99405.70
2019-03-26T09:50:01.248Z,99403.89
2019-03-26T09:52:34.407Z,99406.47
2019-03-26T09:55:07.723Z,99402.74
2019-03-26T09:57:38.757Z,99401.52
2019-03-26T10:00:10.149Z,99407.14
2019-03-26T10:02:43.325Z,99407.16
2019-03-26T10:05:14.915Z,99408.17
2019-03-26T10:07:46.318Z,99408.87
2019-03-26T10:10:19.686Z,99420.57
2019-03-26T10:12:50.776Z,99423.73
2019-03-26T10:15:24.656Z,99426.80
2019-03-26T10:17:57.682Z,99422.30
2019-03-26T10:20:29.122Z,99419.73
2019-03-26T10:23:00.279Z,99429.49
2019-03-26T10:25:31.638Z,99431.09
2019-03-26T10:28:03.445Z,99424.88
2019-03-26T10:30:43.250Z,99411.38
2019-03-26T10:33:14.437Z,99404.53
2019-03-26T10:35:47.364Z,99410.87
2019-03-26T10:38:18.900Z,99415.48
2019-03-26T10:40:52.026Z,99413.50
2019-03-26T10:43:23.402Z,99408.02
2019-03-26T10:45:59.601Z,99404.81
2019-03-26T10:48:31.953Z,99404.76
2019-03-26T10:51:03.420Z,99402.91
2019-03-26T10:53:34.482Z,99398.19
2019-03-26T10:56:05.954Z,99396.28
2019-03-26T10:58:37.294Z,99399.03
2019-03-26T11:01:09.002Z,99385.07
2019-03-26T11:03:40.417Z,99391.54
2019-03-26T11:06:11.847Z,99387.64
2019-03-26T11:08:45.218Z,99388.75
2019-03-26T11:11:16.863Z,99386.52
2019-03-26T11:13:50.064Z,99392.08
2019-03-26T11:16:21.239Z,99387.11
2019-03-26T11:18:52.535Z,99387.22
2019-03-26T11:21:24.738Z,99387.48
2019-03-26T11:23:56.432Z,99380.52
2019-03-26T11:26:30.362Z,99372.23
2019-03-26T11:29:02.694Z,99367.84
2019-03-26T11:31:35.886Z,99373.75
2019-03-26T11:34:10.873Z,99365.33
2019-03-26T11:36:43.880Z,99362.61
2019-03-26T11:39:15.142Z,99351.96
2019-03-26T11:41:46.396Z,99352.61
2019-03-26T11:44:17.533Z,99362.29
2019-03-26T11:46:50.707Z,99352.90
2019-03-26T11:49:21.944Z,99353.58
2019-03-26T11:51:54.841Z,99353.73
2019-03-26T11:54:26.211Z,99355.17
2019-03-26T11:56:57.407Z,99357.12
2019-03-26T11:59:30.495Z,99355.34
2019-03-26T12:02:01.806Z,99349.42
2019-03-26T12:04:33.150Z,99354.87
2019-03-26T12:07:04.332Z,99353.27
2019-03-26T12:09:45.666Z,99354.64
2019-03-26T12:12:09.215Z,99349.23
2019-03-26T12:14:42.696Z,99357.38
2019-03-26T12:17:15.112Z,99358.05
2019-03-26T12:19:46.401Z,99357.62
2019-03-26T12:22:17.750Z,99353.64
2019-03-26T12:24:48.995Z,99349.02
2019-03-26T12:27:20.118Z,99341.91
2019-03-26T12:29:51.433Z,99335.45
2019-03-26T12:32:22.600Z,99332.84
2019-03-26T12:34:55.615Z,99331.73
2019-03-26T12:37:26.997Z,99331.73
2019-03-26T12:39:59.637Z,99329.35
2019-03-26T12:42:31.262Z,99322.62
2019-03-26T12:45:06.756Z,99316.38
2019-03-26T12:47:38.231Z,99314.39
2019-03-26T12:50:09.936Z,99316.63
2019-03-26T12:52:41.066Z,99322.36
2019-03-26T12:55:12.252Z,99316.91
2019-03-26T12:57:43.261Z,99312.12
2019-03-26T13:00:14.461Z,99304.18
2019-03-26T13:02:51.262Z,99305.19
2019-03-26T13:05:24.322Z,99303.72
2019-03-26T13:07:57.469Z,99293.59
2019-03-26T13:10:29.075Z,99293.97
2019-03-26T13:13:00.680Z,99294.86
2019-03-26T13:15:33.033Z,99288.59
2019-03-26T13:18:04.217Z,99283.07
2019-03-26T13:20:37.157Z,99286.18
2019-03-26T13:23:08.404Z,99283.26
2019-03-26T13:25:39.461Z,99283.69
2019-03-26T13:28:10.734Z,99279.39
2019-03-26T13:30:43.822Z,99270.57
2019-03-26T13:33:15.323Z,99283.54
2019-03-26T13:35:47.502Z,99285.84
2019-03-26T13:38:18.652Z,99281.05
2019-03-26T13:40:49.629Z,99274.59
2019-03-26T13:43:22.496Z,99274.70
2019-03-26T13:45:53.706Z,99276.33
2019-03-26T13:48:24.965Z,99277.22
2019-03-26T13:50:56.022Z,99274.50
2019-03-26T13:53:27.317Z,99266.74
2019-03-26T13:55:58.420Z,99272.50
2019-03-26T13:58:29.752Z,99263.72
2019-03-26T14:01:02.850Z,99261.63
2019-03-26T14:03:35.406Z,99263.59
2019-03-26T14:06:07.100Z,99252.42
2019-03-26T14:08:40.021Z,99252.48
2019-03-26T14:11:11.477Z,99255.88
2019-03-26T14:13:44.623Z,99247.28
2019-03-26T14:16:17.542Z,99245.75
2019-03-26T14:18:48.953Z,99247.45
2019-03-26T14:21:20.211Z,99234.77
2019-03-26T14:23:53.151Z,99236.19
2019-03-26T14:26:26.654Z,99242.91
2019-03-26T14:28:57.719Z,99236.09
2019-03-26T14:31:29.252Z,99237.92
2019-03-26T14:34:01.053Z,99242.63
2019-03-26T14:36:32.304Z,99239.55
2019-03-26T14:39:05.837Z,99233.11
2019-03-26T14:41:38.651Z,99230.52
2019-03-26T14:44:14.423Z,99231.91
2019-03-26T14:46:51.385Z,99236.89
2019-03-26T14:49:27.649Z,99232.84
2019-03-26T14:51:58.944Z,99238.98
2019-03-26T14:54:32.033Z,99240.22
2019-03-26T14:57:03.147Z,99247.14
2019-03-26T14:59:34.428Z,99248.48
2019-03-26T15:02:07.589Z,99244.66
2019-03-26T15:04:39.293Z,99247.23
2019-03-26T15:07:12.474Z,99244.60
2019-03-26T15:09:44.612Z,99244.14
2019-03-26T15:12:18.377Z,99246.02
2019-03-26T15:14:51.533Z,99246.60
2019-03-26T15:17:23.784Z,99239.87
2019-03-26T15:19:55.409Z,99233.72
2019-03-26T15:22:27.414Z,99234.00
2019-03-26T15:24:59.570Z,99233.53
2019-03-26T15:27:30.927Z,99237.29
2019-03-26T15:30:06.882Z,99242.62
2019-03-26T15:32:38.138Z,99242.08
2019-03-26T15:35:09.953Z,99241.88
2019-03-26T15:37:43.031Z,99248.68
2019-03-26T15:40:17.395Z,99250.16
2019-03-26T15:42:49.062Z,99241.61
2019-03-26T15:45:20.780Z,99244.89
2019-03-26T15:47:52.398Z,99237.28
2019-03-26T15:50:42.177Z,99236.69
2019-03-26T15:53:14.659Z,99229.49
2019-03-26T15:55:46.464Z,99237.70
2019-03-26T15:58:18.113Z,99242.05
2019-03-26T16:00:49.783Z,99244.27
2019-03-26T16:03:22.618Z,99237.55
2019-03-26T16:05:57.233Z,99239.98
2019-03-26T16:08:29.127Z,99239.23
2019-03-26T16:11:00.606Z,99243.30
2019-03-26T16:13:35.572Z,99243.61
2019-03-26T16:16:05.858Z,99250.11
2019-03-26T16:18:48.565Z,99257.41
2019-03-26T16:21:19.914Z,99258.47
2019-03-26T16:23:51.405Z,99259.56
2019-03-26T16:26:23.242Z,99257.94
2019-03-26T16:28:56.318Z,99259.28
2019-03-26T16:31:29.677Z,99263.33
2019-03-26T16:34:01.601Z,99261.86
2019-03-26T16:36:32.749Z,99259.20
2019-03-26T16:39:05.064Z,99254.30
2019-03-26T16:41:48.457Z,99262.41
2019-03-26T16:44:11.068Z,99262.37
2019-03-26T16:46:44.183Z,99268.05
2019-03-26T16:49:16.717Z,99266.66
2019-03-26T16:51:47.949Z,99270.15
2019-03-26T16:54:19.061Z,99274.91
2019-03-26T16:56:56.057Z,99274.36
2019-03-26T16:59:29.127Z,99286.93
2019-03-26T17:02:00.377Z,99287.98
2019-03-26T17:04:31.643Z,99290.17
2019-03-26T17:07:03.489Z,99292.92
2019-03-26T17:09:36.579Z,99292.25
2019-03-26T17:12:09.439Z,99290.69
2019-03-26T17:14:40.787Z,99292.37
2019-03-26T17:17:12.228Z,99294.01
2019-03-26T17:19:43.532Z,99295.27
2019-03-26T17:22:16.049Z,99301.52
2019-03-26T17:24:47.483Z,99302.53
2019-03-26T17:27:20.319Z,99306.77
2019-03-26T17:29:51.751Z,99305.70
2019-03-26T17:32:23.074Z,99305.70
2019-03-26T17:34:54.853Z,99302.99
2019-03-26T17:37:26.568Z,99311.67
2019-03-26T17:39:57.750Z,99310.42
2019-03-26T17:42:28.977Z,99312.21
2019-03-26T17:45:00.757Z,99318.47
2019-03-26T17:47:33.275Z,99318.64
2019-03-26T17:50:05.113Z,99322.84
2019-03-26T17:52:36.835Z,99324.36
2019-03-26T17:55:09.069Z,99326.55
2019-03-26T17:57:40.580Z,99333.08
2019-03-26T18:00:16.521Z,99332.71
2019-03-26T18:02:49.549Z,99337.78
2019-03-26T18:05:28.473Z,99336.28
2019-03-26T18:07:59.758Z,99341.86
2019-03-26T18:10:32.976Z,99349.57
2019-03-26T18:13:04.509Z,99350.45
2019-03-26T18:15:36.338Z,99356.74
2019-03-26T18:18:08.341Z,99360.42
2019-03-26T18:20:41.798Z,99367.64
2019-03-26T18:23:13.016Z,99364.97
2019-03-26T18:25:44.706Z,99371.95
2019-03-26T18:28:16.013Z,99370.42
2019-03-26T18:30:48.905Z,99367.38
2019-03-26T18:33:21.330Z,99364.08
2019-03-26T18:35:54.569Z,99358.38
2019-03-26T18:38:25.900Z,99361.48
2019-03-26T18:40:57.059Z,99362.37
2019-03-26T18:43:28.391Z,99363.98
2019-03-26T18:46:00.078Z,99358.86
2019-03-26T18:48:31.584Z,99349.27
2019-03-26T18:51:03.160Z,99369.41
2019-03-26T18:53:34.363Z,99365.33
2019-03-26T18:56:08.433Z,99372.64
2019-03-26T18:58:40.024Z,99377.36
2019-03-26T19:01:12.415Z,99368.09
2019-03-26T19:03:44.253Z,99376.53
2019-03-26T19:06:17.390Z,99365.93
2019-03-26T19:08:50.399Z,99368.48
2019-03-26T19:11:23.444Z,99365.77
2019-03-26T19:13:56.391Z,99379.33
2019-03-26T19:16:27.845Z,99363.00
2019-03-26T19:19:00.873Z,99371.68
2019-03-26T19:21:34.073Z,99373.22
2019-03-26T19:24:10.013Z,99366.62
2019-03-26T19:26:43.079Z,99370.09
2019-03-26T19:29:14.628Z,99371.73
2019-03-26T19:31:46.956Z,99369.71
2019-03-26T19:34:18.013Z,99371.82
2019-03-26T19:36:50.244Z,99373.66
2019-03-26T19:39:21.904Z,99370.20
2019-03-26T19:41:53.923Z,99370.20
2019-03-26T19:44:25.468Z,99378.66
2019-03-26T19:46:56.891Z,99381.26
2019-03-26T19:49:28.340Z,99375.67
2019-03-26T19:52:00.256Z,99382.77
2019-03-26T19:54:31.403Z,99383.41
2019-03-26T19:57:03.582Z,99383.22
2019-03-26T19:59:34.681Z,99383.55
2019-03-26T20:02:07.613Z,99387.39
2019-03-26T20:04:38.869Z,99380.47
2019-03-26T20:07:10.222Z,99380.68
2019-03-26T20:09:41.866Z,99385.78
2019-03-26T20:12:14.758Z,99388.92
2019-03-26T20:14:49.149Z,99390.45
2019-03-26T20:17:22.381Z,99395.76
2019-03-26T20:19:54.202Z,99401.89
2019-03-26T20:22:27.888Z,99397.80
2019-03-26T20:25:01.639Z,99404.23
2019-03-26T20:27:36.154Z,99401.55
2019-03-26T20:30:11.559Z,99403.17
2019-03-26T20:32:43.231Z,99401.55
2019-03-26T20:35:15.636Z,99399.66
2019-03-26T20:37:48.148Z,99406.34
2019-03-26T20:40:19.720Z,99413.33
2019-03-26T20:42:51.291Z,99408.08
2019-03-26T20:45:22.825Z,99404.36
2019-03-26T20:47:54.627Z,99401.89
2019-03-26T20:50:27.081Z,99399.97
2019-03-26T20:52:58.598Z,99401.55
2019-03-26T20:55:34.662Z,99396.42
2019-03-26T20:58:06.860Z,99399.52
2019-03-26T21:00:47.283Z,99398.44
2019-03-26T21:03:18.688Z,99403.23
2019-03-26T21:05:50.096Z,99397.80
2019-03-26T21:08:22.865Z,99402.07
2019-03-26T21:10:55.924Z,99404.75
2019-03-26T21:13:27.211Z,99407.44
2019-03-26T21:15:58.383Z,99412.53
2019-03-26T21:18:31.488Z,99410.36
2019-03-26T21:21:04.549Z,99411.46
2019-03-26T21:23:37.421Z,99413.11
2019-03-26T21:26:08.808Z,99409.60
2019-03-26T21:28:40.138Z,99419.75
2019-03-26T21:31:11.018Z,99415.36
2019-03-26T21:33:42.332Z,99415.09
2019-03-26T21:36:13.485Z,99417.25
2019-03-26T21:38:46.538Z,99414.02
2019-03-26T21:41:17.856Z,99415.15
2019-03-26T21:44:03.326Z,99418.35
2019-03-26T21:46:23.989Z,99420.45
2019-03-26T21:48:54.991Z,99418.41
2019-03-26T21:51:26.468Z,99418.06
2019-03-26T21:53:57.713Z,99418.41
2019-03-26T21:56:29.018Z,99417.43
2019-03-26T21:59:00.292Z,99414.96
2019-03-26T22:01:31.490Z,99420.33
2019-03-26T22:04:02.649Z,99423.31
2019-03-26T22:06:34.115Z,99412.77
2019-03-26T22:09:07.600Z,99424.08
2019-03-26T22:11:49.653Z,99424.93
2019-03-26T22:14:18.220Z,99426.52
2019-03-26T22:16:46.800Z,99435.02
2019-03-26T22:19:27.801Z,99429.89
2019-03-26T22:21:51.040Z,99435.77
2019-03-26T22:24:22.283Z,99438.45
2019-03-26T22:26:53.627Z,99438.18
2019-03-26T22:29:24.873Z,99438.39
2019-03-26T22:31:55.947Z,99439.45
2019-03-26T22:34:28.817Z,99435.13
2019-03-26T22:37:00.190Z,99434.55
2019-03-26T22:39:31.586Z,99434.78
2019-03-26T22:42:05.638Z,99435.88
2019-03-26T22:44:38.969Z,99435.67
2019-03-26T22:47:10.457Z,99437.77
2019-03-26T22:49:41.681Z,99441.80
2019-03-26T22:52:13.072Z,99431.93
2019-03-26T22:54:44.416Z,99431.69
2019-03-26T22:57:15.669Z,99424.05
2019-03-26T22:59:46.764Z,99431.22
2019-03-26T23:02:17.919Z,99423.34
2019-03-26T23:04:50.735Z,99415.02
2019-03-26T23:07:22.050Z,99417.77
2019-03-26T23:09:54.229Z,99427.44
2019-03-26T23:12:27.186Z,99436.81
2019-03-26T23:14:58.388Z,99434.96
2019-03-26T23:17:29.740Z,99430.88
2019-03-26T23:20:01.188Z,99426.84
2019-03-26T23:22:32.947Z,99426.84
2019-03-26T23:25:06.056Z,99434.77
2019-03-26T23:27:37.307Z,99435.83
2019-03-26T23:30:09.199Z,99435.83
2019-03-26T23:32:40.263Z,99433.35
2019-03-26T23:35:11.737Z,99434.94
2019-03-26T23:37:45.026Z,99437.03
2019-03-26T23:40:17.998Z,99439.95
2019-03-26T23:42:51.039Z,99440.47
2019-03-26T23:45:22.265Z,99442.84
2019-03-26T23:47:53.764Z,99440.47
2019-03-26T23:50:24.918Z,99436.69
2019-03-26T23:52:55.947Z,99437.20
2019-03-26T23:55:28.752Z,99430.50
2019-03-26T23:58:00.318Z,99430.78
